sensor_id;sensor_type;location;lat;lon;timestamp;P1;durP1;ratioP1;P2;durP2;ratioP2
1294;SDS011;640;48.310;11.728;2023-01-23T00:01:27;41.65;;;14.52;;
1294;SDS011;640;48.310;11.728;2023-01-23T00:03:58;69.90;;;14.00;;
1294;SDS011;640;48.310;11.728;2023-01-23T00:06:27;85.40;;;16.92;;
1294;SDS011;640;48.310;11.728;2023-01-23T00:08:55;88.18;;;13.68;;
1294;SDS011;640;48.310;11.728;2023-01-23T00:11:25;74.80;;;16.38;;
1294;SDS011;640;48.310;11.728;2023-01-23T00:13:54;65.00;;;16.70;;
1294;SDS011;640;48.310;11.728;2023-01-23T00:16:24;30.52;;;14.95;;
1294;SDS011;640;48.310;11.728;2023-01-23T00:18:53;29.88;;;15.23;;
1294;SDS011;640;48.310;11.728;2023-01-23T00:21:24;35.63;;;16.30;;
1294;SDS011;640;48.310;11.728;2023-01-23T00:23:54;32.05;;;15.52;;
1294;SDS011;640;48.310;11.728;2023-01-23T00:26:25;27.83;;;14.85;;
1294;SDS011;640;48.310;11.728;2023-01-23T00:28:54;41.72;;;14.60;;
1294;SDS011;640;48.310;11.728;2023-01-23T00:31:23;32.80;;;13.57;;
1294;SDS011;640;48.310;11.728;2023-01-23T00:33:53;42.65;;;15.75;;
1294;SDS011;640;48.310;11.728;2023-01-23T00:36:24;40.53;;;17.17;;
1294;SDS011;640;48.310;11.728;2023-01-23T00:38:55;60.00;;;18.17;;
1294;SDS011;640;48.310;11.728;2023-01-23T00:41:24;67.88;;;18.63;;
1294;SDS011;640;48.310;11.728;2023-01-23T00:43:52;61.13;;;19.83;;
1294;SDS011;640;48.310;11.728;2023-01-23T00:46:21;41.90;;;17.80;;
1294;SDS011;640;48.310;11.728;2023-01-23T00:48:50;44.85;;;16.65;;
1294;SDS011;640;48.310;11.728;2023-01-23T00:51:18;57.05;;;16.17;;
1294;SDS011;640;48.310;11.728;2023-01-23T00:53:49;36.03;;;17.52;;
1294;SDS011;640;48.310;11.728;2023-01-23T00:56:17;39.40;;;18.05;;
1294;SDS011;640;48.310;11.728;2023-01-23T00:58:46;41.58;;;19.02;;
1294;SDS011;640;48.310;11.728;2023-01-23T01:01:14;40.28;;;18.05;;
1294;SDS011;640;48.310;11.728;2023-01-23T01:03:43;35.25;;;16.77;;
1294;SDS011;640;48.310;11.728;2023-01-23T01:06:12;35.20;;;15.90;;
1294;SDS011;640;48.310;11.728;2023-01-23T01:08:41;34.92;;;18.02;;
1294;SDS011;640;48.310;11.728;2023-01-23T01:11:11;33.80;;;16.42;;
1294;SDS011;640;48.310;11.728;2023-01-23T01:13:39;31.03;;;15.87;;
1294;SDS011;640;48.310;11.728;2023-01-23T01:16:08;32.38;;;16.30;;
1294;SDS011;640;48.310;11.728;2023-01-23T01:18:37;27.88;;;14.65;;
1294;SDS011;640;48.310;11.728;2023-01-23T01:21:06;28.38;;;15.55;;
1294;SDS011;640;48.310;11.728;2023-01-23T01:23:36;28.47;;;16.03;;
1294;SDS011;640;48.310;11.728;2023-01-23T01:26:05;30.90;;;15.93;;
1294;SDS011;640;48.310;11.728;2023-01-23T01:28:36;28.60;;;15.98;;
1294;SDS011;640;48.310;11.728;2023-01-23T01:31:07;26.52;;;14.55;;
1294;SDS011;640;48.310;11.728;2023-01-23T01:33:38;27.40;;;15.23;;
1294;SDS011;640;48.310;11.728;2023-01-23T01:36:07;25.23;;;14.45;;
1294;SDS011;640;48.310;11.728;2023-01-23T01:38:36;27.13;;;16.02;;
1294;SDS011;640;48.310;11.728;2023-01-23T01:41:05;27.02;;;15.18;;
1294;SDS011;640;48.310;11.728;2023-01-23T01:43:35;25.58;;;15.32;;
1294;SDS011;640;48.310;11.728;2023-01-23T01:48:55;27.48;;;14.95;;
1294;SDS011;640;48.310;11.728;2023-01-23T01:51:32;29.80;;;14.88;;
1294;SDS011;640;48.310;11.728;2023-01-23T01:54:05;30.80;;;15.45;;
1294;SDS011;640;48.310;11.728;2023-01-23T01:56:37;29.42;;;15.95;;
1294;SDS011;640;48.310;11.728;2023-01-23T01:59:09;30.75;;;16.00;;
1294;SDS011;640;48.310;11.728;2023-01-23T02:01:38;31.15;;;15.80;;
1294;SDS011;640;48.310;11.728;2023-01-23T02:04:08;32.03;;;17.42;;
1294;SDS011;640;48.310;11.728;2023-01-23T02:06:36;29.33;;;15.85;;
1294;SDS011;640;48.310;11.728;2023-01-23T02:09:06;29.90;;;15.30;;
1294;SDS011;640;48.310;11.728;2023-01-23T02:11:37;28.73;;;16.02;;
1294;SDS011;640;48.310;11.728;2023-01-23T02:14:06;30.08;;;16.00;;
1294;SDS011;640;48.310;11.728;2023-01-23T02:16:35;31.35;;;16.90;;
1294;SDS011;640;48.310;11.728;2023-01-23T02:19:09;30.42;;;15.68;;
1294;SDS011;640;48.310;11.728;2023-01-23T02:21:56;28.60;;;16.55;;
1294;SDS011;640;48.310;11.728;2023-01-23T02:24:32;31.88;;;16.05;;
1294;SDS011;640;48.310;11.728;2023-01-23T02:27:05;30.17;;;16.42;;
1294;SDS011;640;48.310;11.728;2023-01-23T02:29:41;27.63;;;15.70;;
1294;SDS011;640;48.310;11.728;2023-01-23T02:32:10;25.50;;;14.85;;
1294;SDS011;640;48.310;11.728;2023-01-23T02:34:39;27.25;;;15.68;;
1294;SDS011;640;48.310;11.728;2023-01-23T02:37:08;27.02;;;15.60;;
1294;SDS011;640;48.310;11.728;2023-01-23T02:39:36;25.98;;;14.38;;
1294;SDS011;640;48.310;11.728;2023-01-23T02:42:06;28.88;;;15.48;;
1294;SDS011;640;48.310;11.728;2023-01-23T02:44:35;27.10;;;14.57;;
1294;SDS011;640;48.310;11.728;2023-01-23T02:47:04;30.10;;;16.00;;
1294;SDS011;640;48.310;11.728;2023-01-23T02:49:37;27.85;;;15.05;;
1294;SDS011;640;48.310;11.728;2023-01-23T02:52:06;26.70;;;15.18;;
1294;SDS011;640;48.310;11.728;2023-01-23T02:54:35;27.88;;;15.38;;
1294;SDS011;640;48.310;11.728;2023-01-23T02:57:06;29.38;;;15.95;;
1294;SDS011;640;48.310;11.728;2023-01-23T02:59:35;29.20;;;16.15;;
1294;SDS011;640;48.310;11.728;2023-01-23T03:02:21;25.20;;;14.38;;
1294;SDS011;640;48.310;11.728;2023-01-23T03:04:49;25.42;;;14.85;;
1294;SDS011;640;48.310;11.728;2023-01-23T03:07:17;26.95;;;15.68;;
1294;SDS011;640;48.310;11.728;2023-01-23T03:09:46;27.23;;;15.27;;
1294;SDS011;640;48.310;11.728;2023-01-23T03:12:15;26.38;;;15.25;;
1294;SDS011;640;48.310;11.728;2023-01-23T03:14:44;27.95;;;15.60;;
1294;SDS011;640;48.310;11.728;2023-01-23T03:17:14;30.55;;;15.98;;
1294;SDS011;640;48.310;11.728;2023-01-23T03:19:42;29.30;;;15.90;;
1294;SDS011;640;48.310;11.728;2023-01-23T03:22:10;29.10;;;15.27;;
1294;SDS011;640;48.310;11.728;2023-01-23T03:24:39;31.08;;;15.23;;
1294;SDS011;640;48.310;11.728;2023-01-23T03:27:07;26.17;;;15.27;;
1294;SDS011;640;48.310;11.728;2023-01-23T03:29:37;26.95;;;14.93;;
1294;SDS011;640;48.310;11.728;2023-01-23T03:32:37;30.67;;;16.25;;
1294;SDS011;640;48.310;11.728;2023-01-23T03:35:06;30.23;;;15.95;;
1294;SDS011;640;48.310;11.728;2023-01-23T03:37:39;29.30;;;16.00;;
1294;SDS011;640;48.310;11.728;2023-01-23T03:40:09;27.30;;;15.27;;
1294;SDS011;640;48.310;11.728;2023-01-23T03:42:59;29.38;;;15.55;;
1294;SDS011;640;48.310;11.728;2023-01-23T03:45:29;28.40;;;15.57;;
1294;SDS011;640;48.310;11.728;2023-01-23T03:47:58;28.17;;;15.60;;
1294;SDS011;640;48.310;11.728;2023-01-23T03:50:26;28.25;;;14.85;;
1294;SDS011;640;48.310;11.728;2023-01-23T03:52:54;29.10;;;15.85;;
1294;SDS011;640;48.310;11.728;2023-01-23T03:55:23;27.73;;;15.02;;
1294;SDS011;640;48.310;11.728;2023-01-23T03:57:51;29.50;;;15.52;;
1294;SDS011;640;48.310;11.728;2023-01-23T04:00:19;26.42;;;15.05;;
1294;SDS011;640;48.310;11.728;2023-01-23T04:02:49;28.92;;;15.98;;
1294;SDS011;640;48.310;11.728;2023-01-23T04:05:18;30.30;;;16.10;;
1294;SDS011;640;48.310;11.728;2023-01-23T04:07:46;28.85;;;15.75;;
1294;SDS011;640;48.310;11.728;2023-01-23T04:10:14;29.55;;;16.40;;
1294;SDS011;640;48.310;11.728;2023-01-23T04:12:43;29.80;;;16.08;;
1294;SDS011;640;48.310;11.728;2023-01-23T04:15:11;29.10;;;16.05;;
1294;SDS011;640;48.310;11.728;2023-01-23T04:17:39;29.88;;;16.05;;
1294;SDS011;640;48.310;11.728;2023-01-23T04:20:10;31.75;;;16.92;;
1294;SDS011;640;48.310;11.728;2023-01-23T04:22:40;30.75;;;16.25;;
1294;SDS011;640;48.310;11.728;2023-01-23T04:25:08;28.40;;;16.15;;
1294;SDS011;640;48.310;11.728;2023-01-23T04:27:37;29.98;;;16.13;;
1294;SDS011;640;48.310;11.728;2023-01-23T04:30:05;32.53;;;16.98;;
1294;SDS011;640;48.310;11.728;2023-01-23T04:32:35;30.57;;;17.20;;
1294;SDS011;640;48.310;11.728;2023-01-23T04:35:03;30.67;;;16.50;;
1294;SDS011;640;48.310;11.728;2023-01-23T04:37:33;27.95;;;14.90;;
1294;SDS011;640;48.310;11.728;2023-01-23T04:40:02;32.08;;;17.70;;
1294;SDS011;640;48.310;11.728;2023-01-23T04:42:30;33.75;;;17.88;;
1294;SDS011;640;48.310;11.728;2023-01-23T04:44:59;33.15;;;16.63;;
1294;SDS011;640;48.310;11.728;2023-01-23T04:47:27;34.67;;;17.95;;
1294;SDS011;640;48.310;11.728;2023-01-23T04:49:55;34.08;;;17.45;;
1294;SDS011;640;48.310;11.728;2023-01-23T04:52:24;32.55;;;17.00;;
1294;SDS011;640;48.310;11.728;2023-01-23T04:54:53;34.92;;;18.48;;
1294;SDS011;640;48.310;11.728;2023-01-23T04:57:22;36.33;;;19.23;;
1294;SDS011;640;48.310;11.728;2023-01-23T04:59:50;37.40;;;19.02;;
1294;SDS011;640;48.310;11.728;2023-01-23T05:02:19;35.92;;;18.13;;
1294;SDS011;640;48.310;11.728;2023-01-23T05:04:47;37.30;;;18.23;;
1294;SDS011;640;48.310;11.728;2023-01-23T05:07:15;38.20;;;19.63;;
1294;SDS011;640;48.310;11.728;2023-01-23T05:09:43;37.85;;;20.55;;
1294;SDS011;640;48.310;11.728;2023-01-23T05:12:13;39.08;;;19.25;;
1294;SDS011;640;48.310;11.728;2023-01-23T05:14:41;41.28;;;21.70;;
1294;SDS011;640;48.310;11.728;2023-01-23T05:17:10;41.28;;;19.98;;
1294;SDS011;640;48.310;11.728;2023-01-23T05:19:38;39.83;;;18.58;;
1294;SDS011;640;48.310;11.728;2023-01-23T05:22:06;42.33;;;21.00;;
1294;SDS011;640;48.310;11.728;2023-01-23T05:24:35;39.08;;;19.15;;
1294;SDS011;640;48.310;11.728;2023-01-23T05:27:03;39.80;;;20.20;;
1294;SDS011;640;48.310;11.728;2023-01-23T05:29:33;38.65;;;19.88;;
1294;SDS011;640;48.310;11.728;2023-01-23T05:32:01;41.40;;;20.00;;
1294;SDS011;640;48.310;11.728;2023-01-23T05:34:29;40.75;;;20.35;;
1294;SDS011;640;48.310;11.728;2023-01-23T05:36:58;39.40;;;19.90;;
1294;SDS011;640;48.310;11.728;2023-01-23T05:39:26;38.70;;;19.58;;
1294;SDS011;640;48.310;11.728;2023-01-23T05:41:54;40.58;;;21.13;;
1294;SDS011;640;48.310;11.728;2023-01-23T05:44:23;41.28;;;20.75;;
1294;SDS011;640;48.310;11.728;2023-01-23T05:46:52;37.97;;;19.10;;
1294;SDS011;640;48.310;11.728;2023-01-23T05:49:21;42.70;;;21.37;;
1294;SDS011;640;48.310;11.728;2023-01-23T05:51:49;43.22;;;21.52;;
1294;SDS011;640;48.310;11.728;2023-01-23T05:54:17;40.38;;;20.30;;
1294;SDS011;640;48.310;11.728;2023-01-23T05:56:46;46.67;;;23.30;;
1294;SDS011;640;48.310;11.728;2023-01-23T05:59:14;50.15;;;22.60;;
1294;SDS011;640;48.310;11.728;2023-01-23T06:01:42;43.03;;;21.50;;
1294;SDS011;640;48.310;11.728;2023-01-23T06:04:12;40.20;;;21.10;;
1294;SDS011;640;48.310;11.728;2023-01-23T06:06:42;43.97;;;20.13;;
1294;SDS011;640;48.310;11.728;2023-01-23T06:09:10;44.03;;;21.50;;
1294;SDS011;640;48.310;11.728;2023-01-23T06:11:38;49.88;;;22.15;;
1294;SDS011;640;48.310;11.728;2023-01-23T06:14:07;42.08;;;20.90;;
1294;SDS011;640;48.310;11.728;2023-01-23T06:16:35;43.42;;;21.45;;
1294;SDS011;640;48.310;11.728;2023-01-23T06:19:04;42.60;;;20.73;;
1294;SDS011;640;48.310;11.728;2023-01-23T06:21:33;41.97;;;20.50;;
1294;SDS011;640;48.310;11.728;2023-01-23T06:24:02;42.90;;;21.07;;
1294;SDS011;640;48.310;11.728;2023-01-23T06:26:30;41.38;;;21.23;;
1294;SDS011;640;48.310;11.728;2023-01-23T06:28:59;40.00;;;18.48;;
1294;SDS011;640;48.310;11.728;2023-01-23T06:31:27;41.75;;;20.73;;
1294;SDS011;640;48.310;11.728;2023-01-23T06:33:58;45.55;;;20.73;;
1294;SDS011;640;48.310;11.728;2023-01-23T06:36:26;42.13;;;20.13;;
1294;SDS011;640;48.310;11.728;2023-01-23T06:38:56;47.97;;;21.60;;
1294;SDS011;640;48.310;11.728;2023-01-23T06:41:24;41.40;;;19.92;;
1294;SDS011;640;48.310;11.728;2023-01-23T06:43:53;49.00;;;21.42;;
1294;SDS011;640;48.310;11.728;2023-01-23T06:46:22;44.92;;;19.85;;
1294;SDS011;640;48.310;11.728;2023-01-23T06:48:51;40.15;;;19.30;;
1294;SDS011;640;48.310;11.728;2023-01-23T06:51:19;37.65;;;19.55;;
1294;SDS011;640;48.310;11.728;2023-01-23T06:53:48;34.03;;;16.50;;
1294;SDS011;640;48.310;11.728;2023-01-23T06:56:17;36.88;;;18.05;;
1294;SDS011;640;48.310;11.728;2023-01-23T06:58:46;37.83;;;18.57;;
1294;SDS011;640;48.310;11.728;2023-01-23T07:01:15;33.80;;;16.88;;
1294;SDS011;640;48.310;11.728;2023-01-23T07:03:44;33.65;;;17.23;;
1294;SDS011;640;48.310;11.728;2023-01-23T07:06:13;33.63;;;16.92;;
1294;SDS011;640;48.310;11.728;2023-01-23T07:08:41;31.10;;;16.00;;
1294;SDS011;640;48.310;11.728;2023-01-23T07:11:10;34.65;;;16.90;;
1294;SDS011;640;48.310;11.728;2023-01-23T07:13:39;26.77;;;12.43;;
1294;SDS011;640;48.310;11.728;2023-01-23T07:16:08;29.87;;;14.10;;
1294;SDS011;640;48.310;11.728;2023-01-23T07:18:36;26.35;;;13.13;;
1294;SDS011;640;48.310;11.728;2023-01-23T07:21:05;32.53;;;15.80;;
1294;SDS011;640;48.310;11.728;2023-01-23T07:23:33;31.75;;;16.25;;
1294;SDS011;640;48.310;11.728;2023-01-23T07:26:03;31.58;;;15.52;;
1294;SDS011;640;48.310;11.728;2023-01-23T07:28:35;33.90;;;15.88;;
1294;SDS011;640;48.310;11.728;2023-01-23T07:31:05;34.90;;;16.67;;
1294;SDS011;640;48.310;11.728;2023-01-23T07:33:33;30.70;;;16.13;;
1294;SDS011;640;48.310;11.728;2023-01-23T07:36:03;20.52;;;10.23;;
1294;SDS011;640;48.310;11.728;2023-01-23T07:38:32;30.83;;;15.65;;
1294;SDS011;640;48.310;11.728;2023-01-23T07:41:01;36.08;;;17.45;;
1294;SDS011;640;48.310;11.728;2023-01-23T07:43:29;26.80;;;12.52;;
1294;SDS011;640;48.310;11.728;2023-01-23T07:45:57;31.50;;;16.08;;
1294;SDS011;640;48.310;11.728;2023-01-23T07:48:27;29.60;;;14.05;;
1294;SDS011;640;48.310;11.728;2023-01-23T07:50:55;31.27;;;15.40;;
1294;SDS011;640;48.310;11.728;2023-01-23T07:53:25;37.72;;;17.70;;
1294;SDS011;640;48.310;11.728;2023-01-23T07:55:53;24.42;;;11.60;;
1294;SDS011;640;48.310;11.728;2023-01-23T07:58:21;34.78;;;16.92;;
1294;SDS011;640;48.310;11.728;2023-01-23T08:00:50;32.33;;;15.15;;
1294;SDS011;640;48.310;11.728;2023-01-23T08:03:18;24.35;;;12.02;;
1294;SDS011;640;48.310;11.728;2023-01-23T08:05:49;30.88;;;14.52;;
1294;SDS011;640;48.310;11.728;2023-01-23T08:08:17;28.88;;;14.65;;
1294;SDS011;640;48.310;11.728;2023-01-23T08:10:45;28.08;;;13.43;;
1294;SDS011;640;48.310;11.728;2023-01-23T08:13:14;31.75;;;16.05;;
1294;SDS011;640;48.310;11.728;2023-01-23T08:15:42;33.85;;;16.15;;
1294;SDS011;640;48.310;11.728;2023-01-23T08:18:12;34.33;;;16.33;;
1294;SDS011;640;48.310;11.728;2023-01-23T08:20:40;48.17;;;21.55;;
1294;SDS011;640;48.310;11.728;2023-01-23T08:23:10;36.03;;;17.33;;
1294;SDS011;640;48.310;11.728;2023-01-23T08:25:38;34.33;;;17.53;;
1294;SDS011;640;48.310;11.728;2023-01-23T08:28:07;36.72;;;17.80;;
1294;SDS011;640;48.310;11.728;2023-01-23T08:30:35;33.83;;;15.73;;
1294;SDS011;640;48.310;11.728;2023-01-23T08:33:04;34.42;;;18.38;;
1294;SDS011;640;48.310;11.728;2023-01-23T08:35:32;36.80;;;18.58;;
1294;SDS011;640;48.310;11.728;2023-01-23T08:38:01;31.95;;;18.63;;
1294;SDS011;640;48.310;11.728;2023-01-23T08:40:30;25.85;;;12.80;;
1294;SDS011;640;48.310;11.728;2023-01-23T08:42:59;37.67;;;15.90;;
1294;SDS011;640;48.310;11.728;2023-01-23T08:45:29;34.05;;;17.33;;
1294;SDS011;640;48.310;11.728;2023-01-23T08:47:57;34.22;;;17.17;;
1294;SDS011;640;48.310;11.728;2023-01-23T08:50:26;23.98;;;11.60;;
1294;SDS011;640;48.310;11.728;2023-01-23T08:52:54;32.53;;;16.38;;
1294;SDS011;640;48.310;11.728;2023-01-23T08:55:22;30.35;;;16.20;;
1294;SDS011;640;48.310;11.728;2023-01-23T08:57:52;32.63;;;15.68;;
1294;SDS011;640;48.310;11.728;2023-01-23T09:00:21;31.63;;;16.17;;
1294;SDS011;640;48.310;11.728;2023-01-23T09:02:49;31.17;;;15.60;;
1294;SDS011;640;48.310;11.728;2023-01-23T09:05:18;34.92;;;18.02;;
1294;SDS011;640;48.310;11.728;2023-01-23T09:07:46;34.95;;;16.60;;
1294;SDS011;640;48.310;11.728;2023-01-23T09:10:15;33.25;;;16.60;;
1294;SDS011;640;48.310;11.728;2023-01-23T09:12:44;32.90;;;16.40;;
1294;SDS011;640;48.310;11.728;2023-01-23T09:15:14;37.60;;;17.25;;
1294;SDS011;640;48.310;11.728;2023-01-23T09:20:11;32.53;;;17.15;;
1294;SDS011;640;48.310;11.728;2023-01-23T09:22:39;24.35;;;11.40;;
1294;SDS011;640;48.310;11.728;2023-01-23T09:25:08;32.55;;;15.93;;
1294;SDS011;640;48.310;11.728;2023-01-23T09:27:37;31.13;;;16.23;;
1294;SDS011;640;48.310;11.728;2023-01-23T09:30:06;30.17;;;15.40;;
1294;SDS011;640;48.310;11.728;2023-01-23T09:32:36;30.88;;;15.55;;
1294;SDS011;640;48.310;11.728;2023-01-23T09:35:05;32.10;;;17.53;;
1294;SDS011;640;48.310;11.728;2023-01-23T09:37:34;30.73;;;14.75;;
1294;SDS011;640;48.310;11.728;2023-01-23T09:40:16;28.40;;;14.05;;
1294;SDS011;640;48.310;11.728;2023-01-23T09:42:46;29.15;;;15.23;;
1294;SDS011;640;48.310;11.728;2023-01-23T09:45:15;31.58;;;16.20;;
1294;SDS011;640;48.310;11.728;2023-01-23T09:47:48;28.60;;;14.38;;
1294;SDS011;640;48.310;11.728;2023-01-23T09:50:20;24.75;;;14.10;;
1294;SDS011;640;48.310;11.728;2023-01-23T09:52:52;26.88;;;13.85;;
1294;SDS011;640;48.310;11.728;2023-01-23T09:55:27;29.05;;;15.50;;
1294;SDS011;640;48.310;11.728;2023-01-23T09:58:03;30.83;;;14.98;;
1294;SDS011;640;48.310;11.728;2023-01-23T10:00:32;28.00;;;15.48;;
1294;SDS011;640;48.310;11.728;2023-01-23T10:03:08;30.23;;;15.65;;
1294;SDS011;640;48.310;11.728;2023-01-23T10:05:41;29.90;;;16.67;;
1294;SDS011;640;48.310;11.728;2023-01-23T10:08:15;25.58;;;13.48;;
1294;SDS011;640;48.310;11.728;2023-01-23T10:10:57;27.15;;;15.00;;
1294;SDS011;640;48.310;11.728;2023-01-23T10:13:34;29.33;;;13.73;;
1294;SDS011;640;48.310;11.728;2023-01-23T10:16:19;28.15;;;14.77;;
1294;SDS011;640;48.310;11.728;2023-01-23T10:18:56;27.55;;;15.43;;
1294;SDS011;640;48.310;11.728;2023-01-23T10:21:32;30.85;;;14.82;;
1294;SDS011;640;48.310;11.728;2023-01-23T10:24:07;26.17;;;13.43;;
1294;SDS011;640;48.310;11.728;2023-01-23T10:26:49;25.10;;;13.43;;
1294;SDS011;640;48.310;11.728;2023-01-23T10:29:19;29.83;;;14.48;;
1294;SDS011;640;48.310;11.728;2023-01-23T10:31:53;28.40;;;13.80;;
1294;SDS011;640;48.310;11.728;2023-01-23T10:34:25;24.73;;;13.70;;
1294;SDS011;640;48.310;11.728;2023-01-23T10:37:08;22.20;;;11.27;;
1294;SDS011;640;48.310;11.728;2023-01-23T10:39:43;26.00;;;13.95;;
1294;SDS011;640;48.310;11.728;2023-01-23T10:42:17;27.77;;;14.95;;
1294;SDS011;640;48.310;11.728;2023-01-23T10:44:47;26.73;;;14.52;;
1294;SDS011;640;48.310;11.728;2023-01-23T10:47:17;28.05;;;15.15;;
1294;SDS011;640;48.310;11.728;2023-01-23T10:49:49;26.38;;;13.57;;
1294;SDS011;640;48.310;11.728;2023-01-23T10:52:34;27.77;;;15.18;;
1294;SDS011;640;48.310;11.728;2023-01-23T10:55:04;26.83;;;14.98;;
1294;SDS011;640;48.310;11.728;2023-01-23T10:57:37;25.95;;;14.15;;
1294;SDS011;640;48.310;11.728;2023-01-23T11:00:19;26.92;;;13.70;;
1294;SDS011;640;48.310;11.728;2023-01-23T11:02:48;27.10;;;14.60;;
1294;SDS011;640;48.310;11.728;2023-01-23T11:05:35;26.15;;;14.18;;
1294;SDS011;640;48.310;11.728;2023-01-23T11:08:22;26.98;;;14.63;;
1294;SDS011;640;48.310;11.728;2023-01-23T11:10:53;27.65;;;14.95;;
1294;SDS011;640;48.310;11.728;2023-01-23T11:13:25;28.45;;;14.45;;
1294;SDS011;640;48.310;11.728;2023-01-23T11:15:55;25.52;;;13.50;;
1294;SDS011;640;48.310;11.728;2023-01-23T11:18:29;32.92;;;14.77;;
1294;SDS011;640;48.310;11.728;2023-01-23T11:21:00;32.70;;;17.75;;
1294;SDS011;640;48.310;11.728;2023-01-23T11:23:28;27.80;;;15.57;;
1294;SDS011;640;48.310;11.728;2023-01-23T11:25:57;26.60;;;14.68;;
1294;SDS011;640;48.310;11.728;2023-01-23T11:28:27;27.48;;;13.38;;
1294;SDS011;640;48.310;11.728;2023-01-23T11:30:57;28.33;;;14.70;;
1294;SDS011;640;48.310;11.728;2023-01-23T11:33:41;27.92;;;13.75;;
1294;SDS011;640;48.310;11.728;2023-01-23T11:39:12;24.60;;;12.52;;
1294;SDS011;640;48.310;11.728;2023-01-23T11:41:45;24.80;;;14.23;;
1294;SDS011;640;48.310;11.728;2023-01-23T11:44:15;26.27;;;14.25;;
1294;SDS011;640;48.310;11.728;2023-01-23T11:46:59;27.85;;;15.20;;
1294;SDS011;640;48.310;11.728;2023-01-23T11:50:08;26.38;;;14.45;;
1294;SDS011;640;48.310;11.728;2023-01-23T11:52:48;28.45;;;14.45;;
1294;SDS011;640;48.310;11.728;2023-01-23T11:55:31;29.58;;;14.73;;
1294;SDS011;640;48.310;11.728;2023-01-23T11:58:06;25.40;;;14.25;;
1294;SDS011;640;48.310;11.728;2023-01-23T12:00:41;24.80;;;14.00;;
1294;SDS011;640;48.310;11.728;2023-01-23T12:06:18;24.55;;;13.27;;
1294;SDS011;640;48.310;11.728;2023-01-23T12:09:06;25.02;;;13.88;;
1294;SDS011;640;48.310;11.728;2023-01-23T12:11:41;25.70;;;13.85;;
1294;SDS011;640;48.310;11.728;2023-01-23T12:14:18;24.30;;;13.20;;
1294;SDS011;640;48.310;11.728;2023-01-23T12:16:54;24.52;;;13.80;;
1294;SDS011;640;48.310;11.728;2023-01-23T12:19:33;27.08;;;14.38;;
1294;SDS011;640;48.310;11.728;2023-01-23T12:22:12;26.92;;;14.80;;
1294;SDS011;640;48.310;11.728;2023-01-23T12:24:48;26.33;;;14.60;;
1294;SDS011;640;48.310;11.728;2023-01-23T12:27:23;27.45;;;15.30;;
1294;SDS011;640;48.310;11.728;2023-01-23T12:30:10;26.92;;;14.90;;
1294;SDS011;640;48.310;11.728;2023-01-23T12:32:49;27.60;;;15.23;;
1294;SDS011;640;48.310;11.728;2023-01-23T12:35:29;27.10;;;14.35;;
1294;SDS011;640;48.310;11.728;2023-01-23T12:38:15;25.73;;;14.80;;
1294;SDS011;640;48.310;11.728;2023-01-23T12:40:52;27.23;;;14.48;;
1294;SDS011;640;48.310;11.728;2023-01-23T12:43:30;24.92;;;14.20;;
1294;SDS011;640;48.310;11.728;2023-01-23T12:46:02;25.38;;;14.02;;
1294;SDS011;640;48.310;11.728;2023-01-23T12:48:35;25.67;;;14.60;;
1294;SDS011;640;48.310;11.728;2023-01-23T12:51:09;24.67;;;14.45;;
1294;SDS011;640;48.310;11.728;2023-01-23T12:53:41;23.55;;;13.23;;
1294;SDS011;640;48.310;11.728;2023-01-23T12:56:14;26.23;;;14.07;;
1294;SDS011;640;48.310;11.728;2023-01-23T12:58:46;23.73;;;13.57;;
1294;SDS011;640;48.310;11.728;2023-01-23T13:01:21;25.17;;;14.15;;
1294;SDS011;640;48.310;11.728;2023-01-23T13:03:55;22.92;;;12.35;;
1294;SDS011;640;48.310;11.728;2023-01-23T13:09:25;25.58;;;13.70;;
1294;SDS011;640;48.310;11.728;2023-01-23T13:12:03;25.30;;;13.90;;
1294;SDS011;640;48.310;11.728;2023-01-23T13:14:38;25.17;;;13.88;;
1294;SDS011;640;48.310;11.728;2023-01-23T13:17:34;26.10;;;14.13;;
1294;SDS011;640;48.310;11.728;2023-01-23T13:20:21;24.73;;;13.88;;
1294;SDS011;640;48.310;11.728;2023-01-23T13:23:25;26.05;;;14.60;;
1294;SDS011;640;48.310;11.728;2023-01-23T13:26:10;26.70;;;14.70;;
1294;SDS011;640;48.310;11.728;2023-01-23T13:28:42;27.20;;;14.18;;
1294;SDS011;640;48.310;11.728;2023-01-23T13:31:26;31.23;;;16.02;;
1294;SDS011;640;48.310;11.728;2023-01-23T13:34:00;26.80;;;14.77;;
1294;SDS011;640;48.310;11.728;2023-01-23T13:36:42;27.00;;;14.60;;
1294;SDS011;640;48.310;11.728;2023-01-23T13:45:18;27.98;;;14.40;;
1294;SDS011;640;48.310;11.728;2023-01-23T13:51:49;27.20;;;14.27;;
1294;SDS011;640;48.310;11.728;2023-01-23T13:54:31;28.65;;;15.52;;
1294;SDS011;640;48.310;11.728;2023-01-23T13:57:31;25.13;;;13.63;;
1294;SDS011;640;48.310;11.728;2023-01-23T14:00:14;26.20;;;14.20;;
1294;SDS011;640;48.310;11.728;2023-01-23T14:03:04;28.17;;;15.40;;
1294;SDS011;640;48.310;11.728;2023-01-23T14:06:12;28.00;;;14.45;;
1294;SDS011;640;48.310;11.728;2023-01-23T14:08:55;34.92;;;17.70;;
1294;SDS011;640;48.310;11.728;2023-01-23T14:11:37;33.22;;;17.92;;
1294;SDS011;640;48.310;11.728;2023-01-23T14:14:21;26.83;;;14.90;;
1294;SDS011;640;48.310;11.728;2023-01-23T14:17:21;26.33;;;15.00;;
1294;SDS011;640;48.310;11.728;2023-01-23T14:20:05;27.27;;;14.38;;
1294;SDS011;640;48.310;11.728;2023-01-23T14:22:56;26.95;;;14.82;;
1294;SDS011;640;48.310;11.728;2023-01-23T14:25:25;29.70;;;15.77;;
1294;SDS011;640;48.310;11.728;2023-01-23T14:28:03;26.92;;;14.70;;
1294;SDS011;640;48.310;11.728;2023-01-23T14:30:32;27.85;;;14.18;;
1294;SDS011;640;48.310;11.728;2023-01-23T14:33:00;25.73;;;14.52;;
1294;SDS011;640;48.310;11.728;2023-01-23T14:35:39;29.85;;;14.30;;
1294;SDS011;640;48.310;11.728;2023-01-23T14:38:10;28.20;;;15.75;;
1294;SDS011;640;48.310;11.728;2023-01-23T14:40:44;27.65;;;14.60;;
1294;SDS011;640;48.310;11.728;2023-01-23T14:43:17;27.63;;;15.20;;
1294;SDS011;640;48.310;11.728;2023-01-23T14:45:48;31.45;;;14.40;;
1294;SDS011;640;48.310;11.728;2023-01-23T14:48:21;29.75;;;15.52;;
1294;SDS011;640;48.310;11.728;2023-01-23T14:50:51;27.13;;;14.63;;
1294;SDS011;640;48.310;11.728;2023-01-23T14:53:28;27.02;;;15.02;;
1294;SDS011;640;48.310;11.728;2023-01-23T14:55:56;29.67;;;15.60;;
1294;SDS011;640;48.310;11.728;2023-01-23T14:58:25;27.55;;;15.18;;
1294;SDS011;640;48.310;11.728;2023-01-23T15:00:54;30.00;;;14.75;;
1294;SDS011;640;48.310;11.728;2023-01-23T15:06:13;30.15;;;15.05;;
1294;SDS011;640;48.310;11.728;2023-01-23T15:08:42;27.80;;;14.52;;
1294;SDS011;640;48.310;11.728;2023-01-23T15:11:10;28.80;;;13.63;;
1294;SDS011;640;48.310;11.728;2023-01-23T15:13:40;29.58;;;14.57;;
1294;SDS011;640;48.310;11.728;2023-01-23T15:16:11;26.13;;;15.02;;
1294;SDS011;640;48.310;11.728;2023-01-23T15:18:48;29.83;;;15.20;;
1294;SDS011;640;48.310;11.728;2023-01-23T15:21:28;27.15;;;14.82;;
1294;SDS011;640;48.310;11.728;2023-01-23T15:24:05;27.58;;;15.38;;
1294;SDS011;640;48.310;11.728;2023-01-23T15:26:44;28.17;;;15.60;;
1294;SDS011;640;48.310;11.728;2023-01-23T15:29:16;28.27;;;15.38;;
1294;SDS011;640;48.310;11.728;2023-01-23T15:31:45;28.17;;;15.38;;
1294;SDS011;640;48.310;11.728;2023-01-23T15:34:17;29.65;;;16.13;;
1294;SDS011;640;48.310;11.728;2023-01-23T15:36:49;28.23;;;15.40;;
1294;SDS011;640;48.310;11.728;2023-01-23T15:39:20;33.50;;;17.27;;
1294;SDS011;640;48.310;11.728;2023-01-23T15:41:50;38.33;;;20.00;;
1294;SDS011;640;48.310;11.728;2023-01-23T15:44:20;30.40;;;16.40;;